Time;durP1;ratioP1;P1;durP2;ratioP2;P2;SDS_P1;SDS_P2;PMS_P1;PMS_P2;Temp;Humidity;BMP_temperature;BMP_pressure;BME280_temperature;BME280_humidity;BME280_pressure;Samples;Min_cycle;Max_cycle;Signal;HPM_P1;HPM_P2
2023/07/17 00:00:36;;;;;;;9.02;4.57;;;;;;;23.94;90.42;100696.84;5092968;28;20028;-67
2023/07/17 00:03:02;;;;;;;5.00;4.20;;;;;;;23.96;90.09;100696.63;5089681;28;20083;-67
2023/07/17 00:05:28;;;;;;;8.50;4.45;;;;;;;23.95;90.22;100687.81;5091827;28;20108;-67
2023/07/17 00:07:53;;;;;;;7.63;3.70;;;;;;;23.91;90.16;100694.63;5075800;28;20028;-67
2023/07/17 00:10:19;;;;;;;8.65;4.78;;;;;;;23.87;91.01;100688.13;5085485;28;20501;-67
2023/07/17 00:12:44;;;;;;;10.05;4.20;;;;;;;23.82;91.87;100696.78;5086708;28;20031;-67
2023/07/17 00:15:10;;;;;;;6.03;4.47;;;;;;;23.76;92.74;100684.41;5093899;28;20023;-67
2023/07/17 00:17:36;;;;;;;8.35;4.97;;;;;;;23.70;93.77;100685.28;5084622;28;20123;-67
2023/07/17 00:20:06;;;;;;;10.25;4.50;;;;;;;23.62;94.33;100685.63;5087741;28;20429;-66
2023/07/17 00:22:32;;;;;;;8.50;4.65;;;;;;;23.63;94.33;100683.78;5083532;28;20476;-66
2023/07/17 00:24:57;;;;;;;7.82;4.60;;;;;;;23.62;93.85;100687.47;5087829;28;20058;-66
2023/07/17 00:27:23;;;;;;;10.82;4.95;;;;;;;23.63;94.39;100683.78;5082015;28;20093;-66
2023/07/17 00:29:48;;;;;;;6.18;3.92;;;;;;;23.62;93.96;100674.19;5085121;28;20078;-67
2023/07/17 00:32:14;;;;;;;5.75;4.25;;;;;;;23.61;93.73;100675.22;5088257;28;20032;-66
2023/07/17 00:34:40;;;;;;;9.68;4.03;;;;;;;23.55;94.09;100674.25;5073776;28;20399;-65
2023/07/17 00:37:06;;;;;;;6.72;4.30;;;;;;;23.53;94.48;100667.50;5077123;28;20090;-65
2023/07/17 00:39:32;;;;;;;5.63;4.03;;;;;;;23.53;94.15;100662.19;5083646;28;20451;-66
2023/07/17 00:41:57;;;;;;;8.00;4.38;;;;;;;23.45;94.53;100661.47;5083159;28;20074;-65
2023/07/17 00:44:23;;;;;;;11.52;5.10;;;;;;;23.48;94.42;100657.53;5094427;28;20028;-66
2023/07/17 00:46:52;;;;;;;7.20;4.45;;;;;;;23.50;94.18;100661.59;5089403;28;20056;-65
2023/07/17 00:49:18;;;;;;;8.48;4.57;;;;;;;23.48;94.29;100655.69;5083788;28;20043;-66
2023/07/17 00:51:43;;;;;;;6.50;4.53;;;;;;;23.53;93.79;100654.22;5084510;28;20395;-65
2023/07/17 00:54:10;;;;;;;9.50;5.22;;;;;;;23.48;93.95;100655.69;5088084;28;20041;-66
2023/07/17 00:56:37;;;;;;;6.45;4.25;;;;;;;23.45;94.55;100656.16;5088318;28;20429;-66
2023/07/17 00:59:04;;;;;;;17.58;5.38;;;;;;;23.41;95.02;100657.63;5088655;28;20111;-66
2023/07/17 01:01:31;;;;;;;9.63;4.43;;;;;;;23.40;95.34;100652.53;5079253;28;20115;-65
2023/07/17 01:04:00;;;;;;;5.32;4.18;;;;;;;23.40;95.16;100658.66;5078076;28;20115;-65
2023/07/17 01:06:26;;;;;;;5.82;4.18;;;;;;;23.37;95.10;100653.78;5080121;28;20028;-65
2023/07/17 01:08:52;;;;;;;8.60;5.13;;;;;;;23.34;94.99;100651.59;5088487;28;20046;-66
2023/07/17 01:11:17;;;;;;;13.98;5.35;;;;;;;23.35;94.80;100655.88;5088253;28;20032;-65
2023/07/17 01:13:47;;;;;;;8.95;3.95;;;;;;;23.27;95.33;100658.81;5087645;28;20047;-65
2023/07/17 01:16:13;;;;;;;9.13;4.65;;;;;;;23.25;95.43;100652.91;5066945;28;20059;-66
2023/07/17 01:18:39;;;;;;;8.13;4.90;;;;;;;23.23;96.31;100654.97;5075868;28;20438;-65
2023/07/17 01:21:07;;;;;;;8.73;4.35;;;;;;;23.22;96.31;100658.66;5087774;28;20035;-66
2023/07/17 01:23:33;;;;;;;9.82;4.38;;;;;;;23.22;96.25;100665.84;5087365;28;20071;-66
2023/07/17 01:25:59;;;;;;;7.20;4.22;;;;;;;23.22;96.34;100655.22;5080888;28;20028;-65
2023/07/17 01:28:24;;;;;;;6.78;4.00;;;;;;;23.24;96.05;100658.44;5086004;28;20105;-65
2023/07/17 01:30:50;;;;;;;8.50;4.40;;;;;;;23.24;95.56;100653.94;5083073;28;20027;-65
2023/07/17 01:33:15;;;;;;;8.82;5.22;;;;;;;23.23;95.43;100659.50;5087389;28;20028;-65
2023/07/17 01:35:41;;;;;;;9.32;4.60;;;;;;;23.28;94.58;100649.81;5083960;28;20036;-66
2023/07/17 01:38:07;;;;;;;8.25;4.18;;;;;;;23.31;93.85;100654.69;5079954;28;20533;-65
2023/07/17 01:40:33;;;;;;;6.20;3.75;;;;;;;23.33;93.18;100649.97;5084174;28;20089;-66
2023/07/17 01:42:58;;;;;;;6.15;3.88;;;;;;;23.36;92.06;100654.81;5084217;28;20027;-65
2023/07/17 01:45:24;;;;;;;6.05;3.70;;;;;;;23.37;91.71;100656.44;5088391;28;20048;-65
2023/07/17 01:47:49;;;;;;;8.32;4.10;;;;;;;23.34;92.28;100648.91;5088949;28;20116;-66
2023/07/17 01:50:15;;;;;;;9.80;3.97;;;;;;;23.26;93.14;100646.56;5086756;28;20480;-65
2023/07/17 01:52:41;;;;;;;6.80;4.32;;;;;;;23.23;93.29;100640.88;5088314;28;20039;-65
2023/07/17 01:55:07;;;;;;;7.22;4.40;;;;;;;23.18;93.47;100636.22;5074607;28;20438;-65
2023/07/17 01:57:32;;;;;;;10.43;4.13;;;;;;;23.18;93.41;100639.69;5082203;28;20126;-66
2023/07/17 01:59:58;;;;;;;8.75;4.18;;;;;;;23.20;93.17;100634.16;5088190;28;20395;-65
2023/07/17 02:02:23;;;;;;;7.75;4.30;;;;;;;23.14;93.69;100632.41;5086165;28;20028;-65
2023/07/17 02:04:49;;;;;;;7.75;4.45;;;;;;;23.07;93.94;100637.81;5067066;28;20027;-65
2023/07/17 02:07:14;;;;;;;8.15;4.35;;;;;;;23.04;94.10;100640.91;5087101;28;20460;-65
2023/07/17 02:09:40;;;;;;;8.57;4.15;;;;;;;23.04;93.83;100637.44;5083411;28;20028;-65
2023/07/17 02:12:05;;;;;;;6.45;3.97;;;;;;;23.07;93.65;100634.34;5087552;28;20054;-65
2023/07/17 02:14:31;;;;;;;9.02;4.05;;;;;;;23.06;93.56;100627.41;5088129;28;20034;-65
2023/07/17 02:16:58;;;;;;;5.82;3.83;;;;;;;23.06;93.75;100640.69;5091801;28;20591;-65
2023/07/17 02:19:23;;;;;;;6.05;4.65;;;;;;;23.02;94.33;100640.31;5084120;28;20036;-65
2023/07/17 02:21:48;;;;;;;7.32;4.15;;;;;;;22.98;94.42;100638.31;5089076;28;20081;-65
2023/07/17 02:24:14;;;;;;;7.57;4.75;;;;;;;22.96;95.00;100645.72;5093228;28;20475;-65
2023/07/17 02:26:40;;;;;;;11.02;4.60;;;;;;;22.91;95.71;100637.59;5084603;28;20032;-65
2023/07/17 02:29:06;;;;;;;10.27;4.97;;;;;;;22.86;95.83;100640.09;5083360;28;20032;-65
2023/07/17 02:31:31;;;;;;;9.38;4.47;;;;;;;22.82;96.66;100642.38;5068950;28;20459;-66
2023/07/17 02:33:57;;;;;;;7.35;4.35;;;;;;;22.79;96.94;100646.28;5094070;28;20032;-66
2023/07/17 02:36:22;;;;;;;5.90;5.13;;;;;;;22.80;97.28;100644.44;5088786;28;20483;-65
2023/07/17 02:38:48;;;;;;;6.65;4.20;;;;;;;22.86;96.89;100648.06;5085682;28;20514;-65
2023/07/17 02:41:16;;;;;;;7.30;4.93;;;;;;;22.90;96.04;100643.94;5090408;28;20084;-66
2023/07/17 02:43:41;;;;;;;5.72;3.88;;;;;;;22.88;95.67;100644.16;5084377;28;20036;-66
2023/07/17 02:46:07;;;;;;;8.13;4.22;;;;;;;22.88;95.88;100643.34;5094254;28;20051;-65
2023/07/17 02:48:32;;;;;;;6.82;3.95;;;;;;;22.84;96.28;100649.09;5089798;28;20031;-65
2023/07/17 02:50:58;;;;;;;8.20;3.80;;;;;;;22.83;95.62;100636.03;5087772;28;20028;-66
2023/07/17 02:53:23;;;;;;;8.75;3.72;;;;;;;22.83;95.19;100646.66;5097822;28;20032;-65
2023/07/17 02:55:48;;;;;;;5.60;3.90;;;;;;;22.81;95.47;100638.09;5086253;28;20043;-66
2023/07/17 02:58:17;;;;;;;5.57;4.28;;;;;;;22.79;96.29;100637.50;5090931;28;20039;-66
2023/07/17 03:00:44;;;;;;;8.27;4.30;;;;;;;22.80;96.02;100642.59;5088185;28;20031;-66
2023/07/17 03:03:09;;;;;;;8.40;4.68;;;;;;;22.76;96.27;100636.06;5093577;28;20039;-65
2023/07/17 03:05:35;;;;;;;11.85;4.20;;;;;;;22.75;96.44;100639.75;5085896;28;20033;-65
2023/07/17 03:08:01;;;;;;;7.70;3.83;;;;;;;22.74;96.50;100645.28;5096372;28;20758;-65
2023/07/17 03:10:27;;;;;;;11.52;4.95;;;;;;;22.72;96.98;100650.81;5090003;28;20555;-66
2023/07/17 03:12:53;;;;;;;10.55;4.20;;;;;;;22.74;96.36;100654.06;5091921;28;20024;-65
2023/07/17 03:15:18;;;;;;;12.25;4.47;;;;;;;22.68;96.38;100644.34;5097608;28;20218;-66
2023/07/17 03:17:44;;;;;;;7.50;4.20;;;;;;;22.63;96.56;100646.84;5086651;28;20028;-65
2023/07/17 03:20:10;;;;;;;6.78;4.03;;;;;;;22.63;96.39;100652.16;5089308;28;20480;-66
2023/07/17 03:22:36;;;;;;;9.30;4.43;;;;;;;22.64;95.75;100664.41;5089305;28;20391;-66
2023/07/17 03:25:04;;;;;;;7.53;4.45;;;;;;;22.65;96.14;100666.03;5083953;28;20127;-66
2023/07/17 03:27:30;;;;;;;5.82;4.65;;;;;;;22.58;97.48;100669.78;5080711;28;20043;-65
2023/07/17 03:29:56;;;;;;;7.93;5.18;;;;;;;22.50;98.58;100668.19;5090404;28;20032;-65
2023/07/17 03:32:21;;;;;;;6.38;4.22;;;;;;;22.51;98.83;100667.16;5089700;28;20036;-65
2023/07/17 03:34:46;;;;;;;8.82;4.88;;;;;;;22.52;99.15;100668.78;5083178;28;20048;-66
2023/07/17 03:37:12;;;;;;;7.82;4.50;;;;;;;22.52;98.99;100668.78;5082234;28;20033;-65
2023/07/17 03:39:37;;;;;;;8.15;4.15;;;;;;;22.52;98.17;100666.94;5083584;28;20502;-66
2023/07/17 03:42:10;;;;;;;5.75;4.13;;;;;;;22.50;97.85;100669.00;5084994;28;20032;-66
2023/07/17 03:44:37;;;;;;;6.68;3.78;;;;;;;22.54;96.69;100668.56;5089659;28;20036;-66
2023/07/17 03:47:03;;;;;;;7.82;4.15;;;;;;;22.58;96.27;100664.44;5081214;28;20032;-66
2023/07/17 03:49:29;;;;;;;6.60;4.35;;;;;;;22.57;96.18;100661.00;5080470;28;20067;-66
2023/07/17 03:51:54;;;;;;;5.57;3.70;;;;;;;22.54;96.30;100663.25;5081609;28;20066;-66
2023/07/17 03:54:20;;;;;;;12.07;4.60;;;;;;;22.54;95.81;100664.06;5085406;28;20467;-66
2023/07/17 03:56:45;;;;;;;8.13;4.20;;;;;;;22.55;94.78;100660.38;5085013;28;20033;-67
2023/07/17 03:59:11;;;;;;;4.63;3.78;;;;;;;22.60;93.63;100667.72;5086250;28;20483;-67
2023/07/17 04:01:36;;;;;;;7.03;4.45;;;;;;;22.59;94.21;100661.59;5081176;28;20032;-64
2023/07/17 04:04:01;;;;;;;7.60;4.18;;;;;;;22.58;94.77;100664.44;5083904;28;20065;-64
2023/07/17 04:06:27;;;;;;;8.20;5.63;;;;;;;22.57;95.44;100668.94;5087205;28;20046;-64
2023/07/17 04:08:52;;;;;;;7.25;4.75;;;;;;;22.56;95.66;100656.72;5086458;28;20031;-64
2023/07/17 04:11:18;;;;;;;10.55;4.55;;;;;;;22.60;95.50;100660.56;5081338;28;20032;-64
2023/07/17 04:13:44;;;;;;;5.32;4.25;;;;;;;22.60;95.95;100665.06;5083518;28;20072;-64
2023/07/17 04:16:09;;;;;;;5.68;3.97;;;;;;;22.56;96.78;100661.19;5085433;28;20058;-65
2023/07/17 04:18:35;;;;;;;5.25;4.57;;;;;;;22.54;97.37;100669.38;5086057;28;20068;-64
2023/07/17 04:21:00;;;;;;;7.28;4.10;;;;;;;22.55;97.66;100672.84;5089513;28;20027;-65
2023/07/17 04:23:26;;;;;;;8.15;4.15;;;;;;;22.54;98.26;100666.72;5088180;28;20032;-64
2023/07/17 04:25:51;;;;;;;10.90;5.03;;;;;;;22.53;98.44;100657.13;5089087;28;20032;-65
2023/07/17 04:28:17;;;;;;;9.82;4.60;;;;;;;22.53;98.72;100667.75;5089470;28;20040;-65
2023/07/17 04:30:43;;;;;;;7.53;4.30;;;;;;;22.51;98.71;100667.16;5090854;28;20066;-65
2023/07/17 04:33:08;;;;;;;12.43;3.72;;;;;;;22.57;97.61;100665.47;5088187;28;20122;-64
2023/07/17 04:35:37;;;;;;;11.10;4.97;;;;;;;22.65;96.53;100665.22;5092780;28;20043;-65
2023/07/17 04:38:03;;;;;;;7.10;3.88;;;;;;;22.71;95.42;100665.13;5080310;28;20042;-64
2023/07/17 04:40:29;;;;;;;10.68;3.72;;;;;;;22.79;94.33;100672.03;5092093;28;20028;-64
2023/07/17 04:42:55;;;;;;;4.95;3.78;;;;;;;22.82;93.79;100679.56;5089358;28;20453;-65
2023/07/17 04:45:20;;;;;;;7.40;3.75;;;;;;;22.83;93.08;100679.34;5087440;28;20127;-64
2023/07/17 04:47:46;;;;;;;4.65;3.47;;;;;;;22.81;93.69;100675.28;5092504;28;20060;-64
2023/07/17 04:50:11;;;;;;;15.23;4.47;;;;;;;22.82;93.94;100671.59;5084339;28;20480;-64
2023/07/17 04:52:36;;;;;;;8.23;4.53;;;;;;;22.82;94.10;100677.72;5082411;28;20081;-64
2023/07/17 04:55:02;;;;;;;6.20;3.97;;;;;;;22.90;94.29;100675.81;5064054;28;20095;-64
2023/07/17 04:57:27;;;;;;;8.15;3.80;;;;;;;22.88;94.44;100675.22;5088480;28;20478;-64
2023/07/17 04:59:53;;;;;;;8.07;3.60;;;;;;;22.89;94.29;100671.53;5089219;28;20032;-64
2023/07/17 05:02:19;;;;;;;6.75;4.20;;;;;;;22.94;94.14;100674.34;5087126;28;20041;-63
2023/07/17 05:04:44;;;;;;;7.03;4.28;;;;;;;22.97;93.64;100677.38;5069234;28;20460;-63
2023/07/17 05:07:10;;;;;;;6.97;3.67;;;;;;;23.06;92.99;100672.56;5086991;28;20428;-64
2023/07/17 05:09:35;;;;;;;8.70;3.88;;;;;;;23.08;92.85;100681.94;5093719;28;20096;-63
2023/07/17 05:12:01;;;;;;;6.80;3.78;;;;;;;23.13;91.99;100673.31;5085972;28;20047;-65
2023/07/17 05:14:27;;;;;;;10.05;3.83;;;;;;;23.11;92.39;100678.84;5087429;28;20038;-64
2023/07/17 05:16:52;;;;;;;8.07;3.88;;;;;;;23.10;92.43;100676.41;5095565;28;20036;-64
2023/07/17 05:19:18;;;;;;;11.48;4.10;;;;;;;23.10;92.94;100679.06;5090410;28;20072;-65
2023/07/17 05:21:43;;;;;;;6.10;3.70;;;;;;;23.15;92.57;100684.53;5088896;28;20074;-64
2023/07/17 05:24:08;;;;;;;10.43;3.83;;;;;;;23.21;92.42;100673.00;5088339;28;20090;-64
2023/07/17 05:26:34;;;;;;;11.65;3.33;;;;;;;23.30;91.78;100684.97;5088236;28;20040;-64
2023/07/17 05:28:59;;;;;;;7.30;3.40;;;;;;;23.39;90.90;100675.66;5087672;28;20031;-64
2023/07/17 05:31:25;;;;;;;13.35;4.13;;;;;;;23.49;90.29;100683.09;5091482;28;20035;-64
2023/07/17 05:33:50;;;;;;;4.22;3.25;;;;;;;23.53;89.10;100678.16;5086146;28;20071;-65
2023/07/17 05:36:16;;;;;;;11.10;3.22;;;;;;;23.59;88.87;100677.28;5094077;28;20070;-64
2023/07/17 05:38:41;;;;;;;7.22;3.50;;;;;;;23.64;88.52;100682.72;5086040;28;20039;-65
2023/07/17 05:41:06;;;;;;;6.35;3.42;;;;;;;23.74;87.29;100688.31;5090231;28;20027;-64
2023/07/17 05:43:32;;;;;;;5.30;3.10;;;;;;;23.82;87.32;100693.31;5085530;28;20475;-64
2023/07/17 05:45:58;;;;;;;4.05;3.00;;;;;;;23.87;86.48;100690.81;5092747;28;20040;-65
2023/07/17 05:48:24;;;;;;;8.15;3.08;;;;;;;23.94;85.97;100685.38;5090654;28;20050;-65
2023/07/17 05:50:50;;;;;;;7.88;3.20;;;;;;;24.01;86.04;100686.91;5086599;28;20403;-64
2023/07/17 05:53:15;;;;;;;13.65;4.40;;;;;;;24.03;86.53;100687.50;5082470;28;20020;-65
2023/07/17 05:55:42;;;;;;;4.43;3.05;;;;;;;24.06;86.36;100681.72;5083346;28;20028;-65
2023/07/17 05:58:08;;;;;;;12.40;3.70;;;;;;;24.17;85.99;100683.56;5087377;28;20036;-64
2023/07/17 06:00:33;;;;;;;7.63;3.35;;;;;;;24.27;85.48;100687.56;5086515;28;20028;-64
2023/07/17 06:02:59;;;;;;;6.50;3.15;;;;;;;24.28;84.79;100682.00;5089383;28;20052;-65
2023/07/17 06:05:24;;;;;;;7.68;3.28;;;;;;;24.37;84.39;100685.16;5070010;28;20036;-64
2023/07/17 06:07:50;;;;;;;9.48;3.25;;;;;;;24.50;84.00;100682.28;5083535;28;20031;-64
2023/07/17 06:10:15;;;;;;;8.38;3.53;;;;;;;24.65;83.48;100695.13;5082045;28;20038;-65
2023/07/17 06:12:42;;;;;;;5.57;3.63;;;;;;;24.81;82.46;100697.09;5088040;28;20063;-64
2023/07/17 06:15:09;;;;;;;3.97;3.30;;;;;;;24.86;82.17;100691.06;5083665;28;20035;-65
2023/07/17 06:17:35;;;;;;;8.63;2.97;;;;;;;24.92;81.84;100693.63;5086836;28;20040;-65
2023/07/17 06:20:04;;;;;;;6.75;3.45;;;;;;;25.02;81.30;100699.22;5088760;28;20034;-65
2023/07/17 06:22:30;;;;;;;4.15;2.50;;;;;;;25.07;81.59;100696.63;5064796;28;20032;-65
2023/07/17 06:24:55;;;;;;;6.50;2.63;;;;;;;25.11;81.30;100692.44;5084638;28;20123;-64
2023/07/17 06:27:20;;;;;;;9.20;2.63;;;;;;;25.22;81.17;100700.66;5085674;28;20036;-64
2023/07/17 06:29:46;;;;;;;7.50;3.10;;;;;;;25.31;80.86;100697.41;5084227;28;20111;-64
2023/07/17 06:32:11;;;;;;;4.68;3.15;;;;;;;25.42;80.39;100696.56;5088728;28;20032;-64
2023/07/17 06:34:37;;;;;;;4.50;2.85;;;;;;;25.47;79.74;100693.19;5078404;28;20029;-64
2023/07/17 06:37:03;;;;;;;5.40;2.92;;;;;;;25.49;79.61;100692.97;5085526;28;20040;-64
2023/07/17 06:39:29;;;;;;;4.78;2.70;;;;;;;25.61;79.50;100696.38;5088145;28;20122;-64
2023/07/17 06:41:55;;;;;;;5.32;2.63;;;;;;;25.69;78.80;100698.69;5064579;28;20104;-64
2023/07/17 06:44:21;;;;;;;7.93;2.78;;;;;;;25.77;78.98;100706.31;5086609;28;20091;-64
2023/07/17 06:46:46;;;;;;;3.08;2.80;;;;;;;25.89;78.05;100703.59;5080266;28;20058;-64
2023/07/17 06:49:12;;;;;;;7.15;2.67;;;;;;;25.90;78.38;100703.38;5085724;28;20484;-64
2023/07/17 06:51:37;;;;;;;5.13;2.92;;;;;;;26.04;77.34;100703.84;5093406;28;20032;-65
2023/07/17 06:54:02;;;;;;;7.55;2.85;;;;;;;26.23;77.07;100702.59;5084343;28;20044;-65
2023/07/17 06:56:28;;;;;;;6.00;2.97;;;;;;;26.33;76.21;100702.78;5094687;28;20034;-65
2023/07/17 06:58:53;;;;;;;5.25;2.95;;;;;;;26.41;75.99;100697.06;5092548;28;20032;-65
2023/07/17 07:01:19;;;;;;;5.93;2.70;;;;;;;26.52;76.05;100703.34;5094301;28;20426;-64
2023/07/17 07:03:45;;;;;;;4.95;2.90;;;;;;;26.65;75.05;100708.34;5090314;28;20031;-64
2023/07/17 07:06:10;;;;;;;7.55;2.50;;;;;;;26.73;74.54;100704.47;5082875;28;20101;-65
2023/07/17 07:08:36;;;;;;;7.03;2.88;;;;;;;26.83;74.24;100706.47;5090113;28;20047;-65
2023/07/17 07:11:02;;;;;;;5.80;2.42;;;;;;;26.97;73.36;100710.44;5088194;28;20032;-64
2023/07/17 07:13:32;;;;;;;6.90;2.58;;;;;;;27.12;73.25;100709.81;5082988;28;20479;-65
2023/07/17 07:15:58;;;;;;;7.45;2.65;;;;;;;27.23;72.85;100717.75;5083030;28;20039;-65
2023/07/17 07:18:24;;;;;;;7.72;2.80;;;;;;;27.31;71.85;100717.31;5086112;28;20446;-64
2023/07/17 07:20:52;;;;;;;8.27;3.17;;;;;;;27.31;72.44;100711.97;5088794;28;20085;-64
2023/07/17 07:23:18;;;;;;;4.35;2.55;;;;;;;27.35;71.63;100713.09;5087642;28;20676;-65
2023/07/17 07:25:44;;;;;;;7.22;2.80;;;;;;;27.43;71.34;100706.47;5086371;28;20050;-65
2023/07/17 07:28:11;;;;;;;6.45;2.65;;;;;;;27.51;71.14;100702.53;5087486;28;20032;-64
2023/07/17 07:30:37;;;;;;;9.02;2.70;;;;;;;27.67;70.23;100704.38;5086367;28;20440;-65
2023/07/17 07:33:02;;;;;;;8.02;3.35;;;;;;;27.79;70.83;100704.22;5088133;28;20032;-65
2023/07/17 07:35:28;;;;;;;6.35;2.53;;;;;;;27.93;69.36;100697.38;5089093;28;20479;-65
2023/07/17 07:37:54;;;;;;;7.32;2.40;;;;;;;28.03;68.70;100698.28;5080875;28;20055;-65
2023/07/17 07:40:20;;;;;;;8.93;2.75;;;;;;;28.12;68.94;100700.50;5080271;28;20042;-65
2023/07/17 07:42:46;;;;;;;6.40;2.80;;;;;;;28.16;68.54;100694.38;5080502;28;20046;-64
2023/07/17 07:45:12;;;;;;;11.25;2.90;;;;;;;28.31;69.56;100696.41;5087554;28;20060;-64
2023/07/17 07:47:39;;;;;;;4.32;2.75;;;;;;;28.41;68.88;100688.44;5086594;28;20036;-64
2023/07/17 07:50:05;;;;;;;5.13;2.88;;;;;;;28.49;68.43;100698.69;5084935;28;20314;-64
2023/07/17 07:52:31;;;;;;;6.93;2.45;;;;;;;28.63;68.37;100694.50;5069551;28;20039;-65
2023/07/17 07:54:56;;;;;;;7.75;2.22;;;;;;;28.81;67.73;100687.09;5085554;28;20048;-65
2023/07/17 07:57:22;;;;;;;6.88;3.05;;;;;;;28.99;67.10;100689.34;5089588;28;20043;-65
2023/07/17 07:59:51;;;;;;;9.50;2.83;;;;;;;29.01;65.57;100692.59;5060641;28;20074;-66
2023/07/17 08:02:17;;;;;;;3.25;2.30;;;;;;;29.10;65.97;100692.91;5070387;28;20412;-65
2023/07/17 08:04:43;;;;;;;3.65;1.98;;;;;;;29.25;65.34;100691.09;5085175;28;20051;-65
2023/07/17 08:07:09;;;;;;;3.80;2.60;;;;;;;29.34;64.74;100696.72;5077255;28;20031;-65
2023/07/17 08:09:34;;;;;;;5.78;2.65;;;;;;;29.42;64.04;100692.78;5082004;28;20130;-65
2023/07/17 08:12:00;;;;;;;6.82;2.72;;;;;;;29.57;63.97;100695.50;5080733;28;20135;-65
2023/07/17 08:14:25;;;;;;;6.45;2.63;;;;;;;29.71;62.61;100697.44;5084058;28;20036;-65
2023/07/17 08:16:51;;;;;;;10.90;2.78;;;;;;;29.84;61.93;100701.44;5089846;28;20481;-65
2023/07/17 08:19:19;;;;;;;9.68;3.00;;;;;;;29.96;60.75;100704.69;5065895;28;20062;-65
2023/07/17 08:21:45;;;;;;;5.85;2.50;;;;;;;29.99;62.13;100697.97;5081342;28;20032;-65
2023/07/17 08:24:10;;;;;;;7.13;2.58;;;;;;;30.02;60.87;100698.28;5086890;28;20028;-65
2023/07/17 08:26:38;;;;;;;7.50;2.92;;;;;;;30.15;60.31;100696.16;5066600;28;20543;-65
2023/07/17 08:29:07;;;;;;;4.50;2.15;;;;;;;30.22;60.33;100696.69;5087466;28;20083;-64
2023/07/17 08:31:33;;;;;;;6.05;2.35;;;;;;;30.42;58.75;100696.66;5078529;28;20503;-65
2023/07/17 08:34:05;;;;;;;6.70;2.33;;;;;;;30.47;58.00;100695.84;5089483;28;20562;-65
2023/07/17 08:36:31;;;;;;;9.68;2.65;;;;;;;30.57;58.66;100695.88;5083668;28;20085;-65
2023/07/17 08:38:57;;;;;;;5.85;2.63;;;;;;;30.65;56.51;100704.19;5081103;28;20108;-65
2023/07/17 08:41:24;;;;;;;10.23;2.78;;;;;;;30.78;56.29;100697.44;5081878;28;20029;-66
2023/07/17 08:43:49;;;;;;;6.07;2.42;;;;;;;30.77;56.07;100703.88;5078165;28;20058;-65
2023/07/17 08:46:15;;;;;;;5.85;2.30;;;;;;;30.71;54.65;100699.63;5079188;28;20531;-65
2023/07/17 08:48:44;;;;;;;8.95;2.53;;;;;;;30.67;54.83;100699.34;5082994;28;20043;-65
2023/07/17 08:51:13;;;;;;;3.28;2.00;;;;;;;30.74;52.78;100695.56;5087134;28;20078;-65
2023/07/17 08:53:43;;;;;;;8.13;2.28;;;;;;;30.88;54.82;100700.09;5091560;28;20054;-66
2023/07/17 08:56:11;;;;;;;3.95;2.30;;;;;;;31.04;55.69;100692.78;5083312;28;20047;-66
2023/07/17 08:58:37;;;;;;;7.07;2.22;;;;;;;31.20;55.90;100697.03;5077357;28;20507;-66
2023/07/17 09:01:04;;;;;;;4.55;2.50;;;;;;;31.26;55.27;100698.63;5089726;28;20069;-65
2023/07/17 09:03:32;;;;;;;4.50;2.30;;;;;;;31.18;54.90;100696.53;5084054;28;20032;-66
2023/07/17 09:05:58;;;;;;;5.25;2.17;;;;;;;31.12;54.01;100694.09;5077261;28;20051;-65
2023/07/17 09:08:24;;;;;;;7.00;2.13;;;;;;;31.07;54.33;100692.25;5075901;28;20063;-66
2023/07/17 09:11:09;;;;;;;5.93;2.58;;;;;;;31.29;55.09;100689.19;5079725;28;20488;-66
2023/07/17 09:13:41;;;;;;;;;;;;;;;31.44;55.17;100697.22;5087432;28;20060;-65
2023/07/17 09:16:22;;;;;;;4.75;2.92;;;;;;;31.57;53.75;100693.09;5084814;28;19970;-66
2023/07/17 09:18:49;;;;;;;6.10;2.92;;;;;;;31.29;54.54;100695.38;5074636;28;20032;-65
2023/07/17 09:21:17;;;;;;;6.25;3.03;;;;;;;31.20;54.08;100699.72;5083251;28;20048;-70
2023/07/17 09:23:51;;;;;;;5.60;2.53;;;;;;;31.09;54.19;100700.84;5082583;28;20028;-66
2023/07/17 09:26:21;;;;;;;8.98;2.50;;;;;;;31.14;54.65;100698.16;5085639;28;20381;-70
2023/07/17 09:28:53;;;;;;;8.23;2.58;;;;;;;31.03;53.16;100691.97;5073344;28;20310;-66
2023/07/17 09:31:24;;;;;;;6.95;2.67;;;;;;;31.24;53.10;100698.09;5082707;28;20480;-66
2023/07/17 09:33:49;;;;;;;5.25;2.42;;;;;;;31.26;52.86;100695.13;5083141;28;20043;-66
2023/07/17 09:36:15;;;;;;;12.77;2.40;;;;;;;31.50;53.16;100709.56;5086530;28;20058;-66
2023/07/17 09:38:40;;;;;;;8.90;2.72;;;;;;;31.66;53.72;100710.28;5077762;28;20093;-66
2023/07/17 09:41:23;;;;;;;6.97;2.83;;;;;;;31.69;52.04;100715.13;5081295;28;20028;-66
2023/07/17 09:44:03;;;;;;;6.53;2.42;;;;;;;31.45;52.24;100706.09;5065898;28;20119;-66
2023/07/17 09:46:30;;;;;;;4.90;2.17;;;;;;;31.43;53.62;100705.56;5080758;28;20059;-66
2023/07/17 09:48:56;;;;;;;7.18;2.10;;;;;;;31.55;53.81;100711.41;5078414;28;20356;-67
2023/07/17 09:51:22;;;;;;;13.38;2.90;;;;;;;31.55;53.71;100714.13;5064870;28;20032;-66
2023/07/17 09:53:48;;;;;;;6.90;2.88;;;;;;;31.42;53.54;100702.06;5079614;28;20078;-66
2023/07/17 09:56:16;;;;;;;8.02;2.00;;;;;;;31.70;53.52;100697.88;5082384;28;20032;-66
2023/07/17 09:58:47;;;;;;;7.40;2.83;;;;;;;31.78;54.16;100697.28;5081107;28;20419;-66
2023/07/17 10:01:16;;;;;;;5.03;2.90;;;;;;;31.52;54.76;100701.22;5079136;28;20089;-66
2023/07/17 10:03:46;;;;;;;7.85;2.75;;;;;;;31.39;55.29;100702.63;5084477;28;20494;-66
2023/07/17 10:06:14;;;;;;;7.93;3.00;;;;;;;31.60;55.47;100692.53;5087219;28;20028;-66
2023/07/17 10:08:46;;;;;;;4.95;2.95;;;;;;;31.84;55.50;100706.94;5087890;28;20052;-66
2023/07/17 10:11:15;;;;;;;7.38;3.60;;;;;;;31.90;55.61;100699.63;5096516;28;20115;-66
2023/07/17 10:13:42;;;;;;;6.28;3.13;;;;;;;32.09;55.81;100697.88;5091330;28;20051;-66
2023/07/17 10:16:08;;;;;;;7.35;3.42;;;;;;;32.18;55.32;100692.66;5090991;28;20029;-66
2023/07/17 10:18:34;;;;;;;10.45;3.60;;;;;;;32.17;55.37;100694.56;5091362;28;20032;-67
2023/07/17 10:21:04;;;;;;;6.75;3.20;;;;;;;32.15;55.31;100696.72;5092934;28;20027;-67
2023/07/17 10:23:29;;;;;;;6.88;4.00;;;;;;;32.18;56.03;100688.06;5089574;28;20039;-66
2023/07/17 10:26:12;;;;;;;10.00;4.00;;;;;;;32.12;56.81;100691.94;5087304;28;20028;-66
2023/07/17 10:28:38;;;;;;;4.68;2.97;;;;;;;32.21;57.26;100694.81;5073151;28;20028;-66
2023/07/17 10:31:21;;;;;;;5.93;3.30;;;;;;;32.14;56.27;100688.94;5087696;28;20468;-69
2023/07/17 10:33:52;;;;;;;11.57;3.72;;;;;;;32.31;55.82;100694.75;5085301;28;20039;-70
2023/07/17 10:36:19;;;;;;;5.55;3.67;;;;;;;31.96;56.33;100693.94;5089203;28;20024;-69
2023/07/17 10:38:53;;;;;;;6.95;3.38;;;;;;;31.89;56.79;100698.84;5076521;28;20129;-69
2023/07/17 10:41:18;;;;;;;6.20;3.30;;;;;;;31.86;56.83;100696.69;5081150;28;20028;-69
2023/07/17 10:43:56;;;;;;;8.07;3.80;;;;;;;31.77;56.26;100701.06;5086904;28;20043;-70
2023/07/17 10:46:29;;;;;;;5.90;3.35;;;;;;;31.72;55.77;100703.78;5088826;28;20120;-69
2023/07/17 10:49:11;;;;;;;7.00;3.10;;;;;;;31.50;55.11;100695.28;5085255;28;20446;-69
2023/07/17 10:51:41;;;;;;;7.88;3.40;;;;;;;31.24;56.23;100692.72;5086884;28;20098;-64
2023/07/17 10:54:06;;;;;;;6.43;3.22;;;;;;;31.37;57.23;100695.88;5082358;28;20484;-64
2023/07/17 10:56:32;;;;;;;7.40;3.42;;;;;;;31.45;57.53;100693.44;5078763;28;20062;-64
2023/07/17 10:58:58;;;;;;;7.63;3.42;;;;;;;31.63;56.95;100700.88;5078400;28;20096;-64
2023/07/17 11:01:24;;;;;;;7.40;3.70;;;;;;;31.46;56.93;100683.47;5089312;28;20039;-64
2023/07/17 11:03:49;;;;;;;6.20;3.17;;;;;;;31.45;57.40;100692.63;5084231;28;20111;-63
2023/07/17 11:06:16;;;;;;;4.22;3.13;;;;;;;31.55;57.67;100681.81;5084917;28;20097;-64
2023/07/17 11:08:43;;;;;;;7.97;3.38;;;;;;;31.80;57.76;100689.72;5086286;28;20053;-64
2023/07/17 11:11:10;;;;;;;9.32;3.60;;;;;;;31.96;56.94;100683.16;5083796;28;20033;-64
2023/07/17 11:13:36;;;;;;;7.15;3.13;;;;;;;31.94;57.14;100685.31;5090318;28;20032;-64
2023/07/17 11:16:09;;;;;;;7.07;3.72;;;;;;;32.07;58.14;100680.38;5086162;28;20494;-64
2023/07/17 11:18:42;;;;;;;9.38;3.58;;;;;;;32.20;56.82;100688.59;5068049;28;20123;-64
2023/07/17 11:21:08;;;;;;;5.38;3.13;;;;;;;32.26;56.20;100681.31;5083792;28;20032;-64